SiktMolnbas
>≥ 10km≥ 10km ≥ 2000ft≥ 2000ft
< 10km< 10km < 2000ft< 2000ft
< 8km< 8km < 1500ft< 1500ft
< 5km< 5km < 1000ft< 1000ft
< 3km< 3km < 500ft< 500ft

Nytt 18 jan 2017:

Nytt 17 jan 2017:

ESNQ (14:50 UTC)

Kiruna flygplats

METAR

ESNQ 181450Z 00000KT 9999 OVC003 M08/M09 Q1022=

TAF

BR

ESNQ 181430Z 1815/1818 00000KT 9999 SCT005 TEMPO 1815/1818 2000 BR BKN003=

ESNG (14:50 UTC)

Gällivare (Kavaheden), Lapland Airport

METAR

ESNG 181450Z 11002KT 9999 BKN005 BKN007 M09/M10 Q1024=

TAF

BR

ESNG 181430Z 1815/1822 13003KT 9999 SCT006 TEMPO 1815/1822 2000 BR BKN002=

ESPA (14:50 UTC)

Luleå Airport (Kallax)

METAR

FG

ESPA 181450Z VRB02KT 5000 2000SE BCFG SCT000 M08/M08 Q1027=

TAF

BR

ESPA 181430Z 1815/1824 30002KT 9999 BCFG TEMPO 1815/1824 1500 BCFG PROB40 1818/1824 3000 BR -SG BKN003 RMK MIL=

ESNL (14:50 UTC)

Lycksele flygplats

METAR

ESNL 181450Z 11004KT 8000 OVC006 M03/M04 Q1025 RESN=

TAF

Ingen TAF hittades.

ESNU (14:50 UTC)

Umeå City Airport

METAR

ESNU 181450Z 01005KT 9999 OVC010 M01/M02 Q1026 RWY 14 ICE 0-10 PCT FCT 0.60=

TAF

ESNU 181430Z 1815/1824 35005KT 9999 OVC010 PROB40 1815/1824 BKN008=

ESNO (14:50 UTC)

Örnsköldsvik flygplats

METAR

ESNO 181450Z 03004KT 360V070 9999 OVC005 M01/M02 Q1024=

TAF

ESNO 181430Z 1815/1823 02005KT 8000 OVC004 PROB40 1815/1823 BKN006=

ESNK (14:50 UTC)

Kramfors-Sollefteå flygplats

METAR

ESNK 181450Z 00000KT 9999 OVC005 01/M00 Q1024=

TAF

ESNK 181430Z 1815/1819 13005KT 9999 BKN006 TEMPO 1815/1819 BKN004=

ESNN (14:50 UTC)

Sundsvall-Härnösands flygplats (Midlanda)

METAR

ESNN 181450Z 06007KT 030V090 9999 OVC005 02/01 Q1023 RWY 16 ICE 0-10 PCT FCT 0.55=

TAF

SN

ESNN 181430Z 1815/1822 09005KT 9999 OVC004 TEMPO 1815/1822 4000 -SNRA BKN008=

ESNZ (14:50 UTC)

Åre Östersund Airport (Frösön)

METAR

SN

ESNZ 181450Z 11006KT 6000 -SN BKN005 OVC007 M01/M01 Q1018=

TAF

SN

ESNZ 181430Z 1815/1823 13005KT 2000 SN VV008 TEMPO 1815/1823 5000 -SN VV015=

ESNS (14:50 UTC)

Skellefteå flygplats

METAR

ESNS 181450Z 04003KT 9999 BKN005 OVC010 M02/M03 Q1027=

TAF

ESNS 181430Z 1815/1823 35005KT 9999 OVC006 PROB40 1815/1823 BKN015=

ESGT (14:50 UTC)

Trollhättan-Vänersborgs flygplats (Malöga flygplats)

METAR

ESGT 181450Z 05009KT 9999 BKN015 08/06 Q1008=

TAF

ESGT 181430Z 1815/1819 04008KT 9999 BKN015 TEMPO 1815/1819 BKN012=

ESGG (14:50 UTC)

Göteborg-Landvetter flygplats

METAR

ESGG 181450Z 10009KT 9999 BKN011 08/06 Q1006 RWY 21 DAMP 51-100 PCT BA GOOD=

TAF

RABR

ESGG 181130Z 1812/1912 12012KT 9999 BKN006 TEMPO 1812/1821 BKN010 TEMPO 1821/1905 4000 RADZ BR BKN004 BECMG 1902/1904 18010KT PROB40 1905/1912 SCT004 BKN015=

ESMT (14:50 UTC)

Halmstads flygplats

METAR

DZ

ESMT 181450Z 12008KT 090V150 9999 DZ OVC011 10/08 Q1006=

TAF

ESMT 181414Z 1815/1820 10012KT 9000 BKN010 TEMPO 1815/1820 BKN007=

ESTA (14:50 UTC)

Ängelholm-Helsingborg flygplats

METAR

BR

ESTA 181450Z 15014KT 7000 BR OVC007 09/08 Q1006=

TAF

RABR

ESTA 181414Z 1815/1823 14016KT 5000 BKN005 TEMPO 1819/1823 2500 -RADZ BR BKN004=

ESTL (14:50 UTC)

Ljungbyheds flygplats

METAR

BR

ESTL 181450Z 12012KT 6000 BR OVC004 09/09 Q1006=

TAF

ESTL 181118Z 1812/1816 11016KT 6000 OVC005 TEMPO 1812/1816 BKN004=

ESMS (14:50 UTC)

Malmö Airport

METAR

BR

ESMS 181450Z 11011KT 5000 BR SCT008 BKN010 OVC012 09/08 Q1006=

TAF

RABR

ESMS 181116Z 1812/1912 11013KT 6000 BKN005 BECMG 1818/1820 18016KT 2500 -RADZ BR BKN004 BECMG 1821/1823 9999 NSW BKN006 BECMG 1823/1902 BKN015 BECMG 1905/1907 BKN007 TEMPO 1907/1912 4000 RADZ BKN012 BECMG 1909/1911 21020G30KT=

ESMK (14:50 UTC)

Kristianstad Airport

METAR

BR

ESMK 181450Z 11009KT 4500 BR OVC005 09/08 Q1007=

TAF

RAFG

ESMK 181414Z 1815/1821 10012KT 1400 BR BKN002 TEMPO 1815/1819 5000 BR BKN005 TEMPO 1819/1821 0500 -RADZ FG=

ESDF (14:50 UTC)

Ronneby flygplats

METAR

ESDF 181450Z 11012KT 6000 BKN006 09/08 Q1008=

TAF

SHRABRCB

ESDF COR 181450Z 1815/1823 10008KT 8000 NSW BKN012 PROB40 1815/1819 3000 BR BKN003 PROB40 1819/1823 1000 SHRA BR BKN002 BKN050CB=

ESMQ (14:50 UTC)

Kalmar Airport

METAR

BR

ESMQ 181450Z 08007KT 4800 BR FEW005 OVC006 09/09 Q1010=

TAF

DZBR

ESMQ 181430Z 1815/1823 09007KT 6000 -DZ OVC008 TEMPO 1815/1823 3000 BR BKN004=

ESMX (14:50 UTC)

Växjö, Smaland Airport

METAR

ESMX 181450Z 10007KT 060V160 9999 BKN007 09/08 Q1008=

TAF

BR

ESMX 181430Z 1815/1821 09007KT 9999 OVC008 PROB40 1815/1821 4000 BR BKN004=

ESGJ (14:50 UTC)

Jönköping Airport

METAR

ESGJ 181450Z 10007KT 9999 BKN006 08/07 Q1008=

TAF

DZBR

ESGJ 181430Z 1815/1824 10010KT 9999 BKN007 TEMPO 1815/1819 4000 BR OVC004 TEMPO 1819/1824 1400 -DZRA BR OVC004=

ESSA (14:50 UTC)

Stockholm-Arlanda flygplats

METAR

BR

ESSA 181450Z 07011KT 3500 BR OVC003 06/06 Q1017 RWY 01L WET OR WATER PATCHES 51-100 PCT BA GOOD RWY 08 WET OR WATER PATCHES 51-100 PCT BA GOOD RWY 01R WET OR WATER PATCHES 51-100 PCT BA GOOD TEMPO 2500 BR=

TAF

RABR

ESSA AMD 181204Z 1812/1912 08012KT 5000 OVC010 TEMPO 1812/1907 2000 BR BKN004 TEMPO 1907/1910 2000 RA BKN005 BECMG 1910/1912 16012KT SCT010 BKN020=

ESSB (14:50 UTC)

Stockholm-Bromma flygplats

METAR

ESSB 181450Z 09010KT 8000 BKN006 08/08 Q1016 RWY 12 DAMP 51-100 PCT BA GOOD=

TAF

DZBR

ESSB 181430Z 1815/1821 08008KT 5000 -DZ SCT004 OVC010 TEMPO 1815/1821 2000 BR BKN004=

ESKN (14:50 UTC)

Stockholm-Skavsta flygplats

METAR

BR

ESKN 181450Z 11016KT 4900 BR BKN003 08/08 Q1014 RWY 08 WET OR WATER PATCHES 51-100 PCT 1 MM BA GOOD=

TAF

DZFG

ESKN 181130Z 1812/1912 10011KT 6000 -DZ OVC004 PROB40 1812/1813 0700 FG TEMPO 1813/1909 2000 BR -DZ BKN010 BECMG 1906/1908 16010KT BECMG 1909/1911 SCT011 BKN020=

ESSP (14:50 UTC)

Norrköping flygplats

METAR

RA

ESSP 181450Z 10010KT 2100 RA OVC003 08/08 Q1013=

TAF

DZBR

ESSP 181430Z 1815/1822 10012KT 5000 -DZ BKN010 TEMPO 1815/1822 2000 BR BKN003=

ESSL (14:50 UTC)

Linköping - SAAB Flygplats

METAR

BR

ESSL 181450Z 10008KT 2700 BR OVC003 08/08 Q1012=

TAF

DZBR

ESSL 181430Z 1815/1823 10011KT 6000 BKN006 TEMPO 1815/1819 3000 DZ BR BKN004 PROB40 1819/1823 1200 BCFG VV002=

ESSV (14:50 UTC)

Visby flygplats

METAR

ESSV 181450Z 12018KT 8000 FEW007 09/08 Q1013 RWY 21 WET OR WATER PATCHES 51-100 PCT FCT 0.72=

TAF

BR

ESSV 181430Z 1815/1823 11012G22KT 6000 BKN008 PROB40 1815/1819 BKN016 PROB40 1819/1823 3000 BR BKN004=

ESOW (14:50 UTC)

Stockholm-Västerås flygplats

METAR

BR

ESOW 181450Z 07009KT 030V110 3000 BR OVC004 07/06 Q1015 RWY 19 WET OR WATER PATCHES 51-100 PCT 1 MM BA GOOD=

TAF

DZBR

ESOW AMD 181409Z 1814/1816 07009KT 5000 BKN008 TEMPO 1814/1816 2000 -DZ BR BKN004=

ESOE (14:50 UTC)

Örebro flygplats

METAR

RA

ESOE 181450Z 07010KT 3100 -RA VV003 07/06 Q1013=

TAF

FG

ESOE 181430Z 1815/1824 06011KT 5000 OVC006 TEMPO 1815/1824 0700 FG VV002=

ESOK (14:50 UTC)

Karlstad Airport

METAR

ESOK 181450Z 08011KT 9999 OVC006 06/06 Q1011=

TAF

BR

ESOK 181430Z 1815/1820 09009KT 7000 BKN009 TEMPO 1815/1820 4000 BR BKN004=

ESSD (14:50 UTC)

Borlänge, Dala Airport

METAR

BR

ESSD 181450Z 09011KT 2800 BR OVC003 05/05 Q1016=

TAF

FG

ESSD AMD 181327Z 1813/1816 09009KT 5000 OVC005 PROB40 1813/1816 0800 FG VV002=

ESGR (14:50 UTC)

Skövde flygplats

METAR

ESGR 181450Z 12007KT 070V160 9999 OVC008 08/07 Q1010=

TAF

Ingen TAF hittades.

ESIB (14:50 UTC)

Såtenäs

METAR

ESIB 181450Z 09009KT 9999 BKN012 08/08 Q1008=

TAF

DZ

ESIB 181100Z 1812/1816 07008G18KT 9999 BKN010 TEMPO 1812/1816 5000 DZRA BKN008 RMK MIL=

ESNV (14:50 UTC)

Vilhelmina flygplats

METAR

SN

ESNV 181450Z 10005KT 9999 -SN SCT007 OVC016 M03/M05 Q1022=

TAF

Ingen TAF hittades.

ESST (14:50 UTC)

Torsby flygplats (Fryklanda)

METAR

ESST 181450Z AUTO 07005KT 040V100 9999 OVC008/// 05/04 Q1013=

TAF

Ingen TAF hittades.

ESUT (14:50 UTC)

Hemavans flygplats

METAR

ESUT 181450Z AUTO 16014KT 9999 FEW026/// OVC043/// M02/M05 Q1019=

TAF

Ingen TAF hittades.

ESNX (14:50 UTC)

Arvidsjaur flygplats

METAR

SN

ESNX 181450Z 00000KT 9999 -SN OVC005 M04/M05 Q1024=

TAF

ESNX 181430Z 1815/1822 VRB02KT 9999 OVC008 PROB40 1815/1822 SCT008=

ESIA (14:50 UTC)

Karlsborg

METAR

BR

ESIA 181450Z 08009KT 6000 BR BKN004 07/07 Q1011=

TAF

DZBR

ESIA AMD 181320Z 1813/1815 09016KT 9999 BKN010 TEMPO 1813/1815 2500 DZ BR BKN002 RMK MIL=

ESUP (14:50 UTC)

Pajala

METAR

ESUP 181450Z AUTO 09004KT 9999 OVC013/// M06/M07 Q1026=

TAF

Ingen TAF hittades.

ESPE (14:50 UTC)

Vidsel

METAR

BR

ESPE 181450Z AUTO VRB01KT 9000 BR OVC013/// M04/M05 Q1026=

TAF

ESPE AMD 180831Z 1812/1815 33002KT 9999 SCT008 BKN020 PROB40 1812/1815 BKN008 RMK MIL=

ESCM (14:50 UTC)

Uppsala

METAR

BR

ESCM 181450Z 09011KT 6000 BR OVC004 06/06 Q1017=

TAF

BR

ESCM 181125Z 1812/1815 11010KT 9999 FEW004 BKN010 TEMPO 1812/1815 4000 BR BKN004 RMK MIL=

ESKM (14:50 UTC)

Mora/Siljan

METAR

ESKM 181450Z AUTO 08008KT 9999 OVC006/// 04/04 Q1016=

TAF

Ingen TAF hittades.

EKRN (14:20 UTC)

Bornholm Airport

METAR

EKRN 181420Z AUTO 11011KT 8000 SCT091/// 10/08 Q1007=

TAF

RABR

EKRN 181422Z 1815/1823 11012KT 7000 SCT008 TEMPO 1815/1819 BKN007 BECMG 1819/1821 20018KT 3000 -RADZ BR BKN005 BECMG 1821/1823 8000 NSW BKN015=

EFIV (14:50 UTC)

Ivalo Airport

METAR

SN

EFIV 181450Z AUTO VRB02KT 9000 -SN OVC019 M08/M09 Q1028=

TAF

Ingen TAF hittades.

EFKT (14:50 UTC)

Kittilä Airport

METAR

EFKT 181450Z AUTO VRB01KT 9999 BKN019 OVC048 M06/M06 Q1026=

TAF

SN

EFKT 181428Z 1815/1819 VRB02KT 9999 FEW009 OVC020 TEMPO 1815/1819 5000 -SN BKN008=

EFRO (14:50 UTC)

Rovaniemi Airport

METAR

SN

EFRO 181450Z AUTO 09004KT 3700 -SN OVC022 M03/M04 Q1026=

TAF

FZDZ

EFRO 181428Z 1815/1915 08006KT 8000 -SN BKN025 TEMPO 1815/1818 2000 -FZDZSN BKN007 BECMG 1818/1820 0300 FZFG VV001 TEMPO 1820/1904 0600 FZFG OVC002 BECMG 1904/1906 5000 NSW BKN005 TEMPO 1906/1912 2000 -DZ BKN004 TEMPO 1912/1915 4000 -DZRA BKN010=

EFKE (14:50 UTC)

Kemi-Tornio Airport

METAR

FG

EFKE 181450Z 03002KT 9999 BCFG BKN006 OVC013 M05/M05 Q1027=

TAF

EFKE 181428Z 1815/1820 03004KT 9999 OVC020 TEMPO 1815/1818 0800 FZFG BKN004=

EFKS (14:50 UTC)

Kuusamo Airport

METAR

SHSN

EFKS 181450Z AUTO 12007KT 7000 -SHSN OVC002 M01/M02 Q1027=

TAF

SN

EFKS 181129Z 1812/1814 12007KT 9999 OVC005 TEMPO 1812/1814 4500 -SN OVC004=

EFOU (14:50 UTC)

Oulu Airport

METAR

EFOU 181450Z AUTO VRB01KT 5000 OVC002 M01/M01 Q1027=

TAF

RABR

EFOU 181428Z 1815/1915 22004KT 7000 OVC010 TEMPO 1815/1902 2000 BR BKN004 BECMG 1902/1904 12010KT 8000 TEMPO 1906/1915 6000 -RADZ=

EFKI (14:50 UTC)

Kajaani Airport

METAR

EFKI 181450Z VRB02KT 8000 OVC002 01/01 Q1027=

TAF

FG

EFKI 181429Z 1815/1822 12003KT 6000 BKN002 BECMG 1815/1816 0600 FG TEMPO 1816/1822 2500 BR OVC001=

EFKK (14:50 UTC)

Kokkola-Pietarsaari/Kruunupyy Airport

METAR

EFKK 181450Z AUTO 07003KT 040V100 9000 OVC007 00/M00 Q1026=

TAF

FG

EFKK 181428Z 1815/1824 05004KT 9999 BKN012 TEMPO 1815/1816 7000 OVC008 BECMG 1816/1818 2500 BR BKN004 PROB40 TEMPO 1818/1824 0700 FG VV002=

EFVA (14:50 UTC)

Vaasa Airport

METAR

EFVA 181450Z AUTO 06004KT 5000 OVC003 01/01 Q1025=

TAF

RAFG

EFVA 181428Z 1815/1915 06004KT 5000 BR OVC003 BECMG 1815/1817 2000 BR TEMPO 1817/1823 0400 FG VV001 BECMG 1900/1902 5000 NSW BKN008 TEMPO 1902/1915 2500 -RADZ BKN011=

EFKU (14:50 UTC)

Kuopio Airport

METAR

BR

EFKU 181450Z AUTO 10004KT 070V130 2500 BR FEW000 OVC023 03/03 Q1027=

TAF

DZFG

EFKU 181429Z 1815/1915 11003KT 0300 FG VV002 TEMPO 1815/1824 3000 BR OVC006 TEMPO 1900/1906 1500 BR TEMPO 1906/1915 3000 DZ=

EFJY (14:50 UTC)

Jyväskylä Airport

METAR

FG

EFJY 181450Z AUTO VRB01KT 1900 BCFG FEW002 OVC015 03/03 Q1025=

TAF

FG

EFJY 181438Z 1815/1915 VRB02KT 9999 OVC010 BECMG 1815/1817 0500 FG VV002 TEMPO 1817/1912 4000 BR OVC005 BECMG 1912/1914 9999 NSW OVC010=

EFTP (14:50 UTC)

Tampere-Pirkkala Airport

METAR

EFTP 181450Z AUTO 10007KT 9999 SCT002 OVC004/// 05/05 Q1024=

TAF

DZBR

EFTP 181438Z 1815/1915 08006KT 9999 FEW002 OVC015 TEMPO 1815/1820 5000 BR OVC002 BECMG 1820/1822 11010KT 1400 DZ OVC003 BECMG 1904/1906 9999 OVC008 BECMG 1906/1908 OVC012 TEMPO 1908/1913 OVC015 BECMG 1913/1915 OVC005=

EFPO (14:50 UTC)

Pori Airport

METAR

BR

EFPO 181450Z AUTO 07006KT 3300 BR VV002 04/04 Q1022=

TAF

BR

EFPO 181438Z 1815/1823 07006KT 2000 BR OVC002 TEMPO 1815/1818 8000 NSW OVC005 BECMG 1818/1820 9999 NSW FEW003 BKN010 BECMG 1820/1822 2000 BR OVC002=

EFTU (14:50 UTC)

Turku Airport

METAR

EFTU 181450Z AUTO 10010KT 9999 OVC009 06/04 Q1021=

TAF

DZ

EFTU 181438Z 1815/1915 10009KT 9999 OVC009 TEMPO 1815/1816 SCT009 OVC012 BECMG 1816/1818 5000 -DZ OVC003 TEMPO 1818/1900 3000 DZ OVC005 BECMG 1900/1902 9999 OVC010 TEMPO 1902/1909 BKN015 BECMG 1910/1912 OVC008=

EFHK (14:50 UTC)

Helsinki-Vantaa Airport

METAR

EFHK 181450Z 07011KT 020V100 6000 OVC004 05/05 Q1023 NOSIG=

TAF

DZ

EFHK 181438Z 1815/1915 09008KT 8000 OVC006 TEMPO 1815/1824 2500 DZ OVC003 BECMG 1900/1902 9999 OVC015 TEMPO 1902/1915 BKN012=

EFMA (14:50 UTC)

Mariehamn Airport

METAR

EFMA 181450Z 10011G21KT 060V130 9999 OVC009 07/04 Q1019=

TAF

DZ

EFMA 181438Z 1815/1824 10010KT 9999 OVC007 TEMPO 1816/1819 2500 DZ OVC004=

EKSB (14:20 UTC)

Sønderborg Airport

METAR

BR

EKSB 181420Z 11007KT 5000 BR OVC005 09/08 Q1002=

TAF

RABR

EKSB 181153Z 1812/1821 12007KT 5000 BKN006 TEMPO 1812/1817 2000 BR BKN004 TEMPO 1817/1821 1200 BR RADZ BKN002=

EKSP (14:50 UTC)

Vojens Airport

METAR

BR

EKSP 181450Z 09004KT 2000 BR BKN004 08/08 Q1003=

TAF

RAFG

EKSP 181417Z 1815/1915 07006KT 1800 BR BKN004 TEMPO 1815/1823 5000 -RADZ BKN008 BECMG 1818/1820 16008KT TEMPO 1823/1909 0300 FG VV001 BECMG 1910/1912 26015G25KT 6000 -RA BKN012=

EKEB (14:20 UTC)

Esbjerg Airport

METAR

DZBR

EKEB 181420Z AUTO 03003KT 2600 DZ BR OVC002/// 07/07 Q1003=

TAF

DZBR

EKEB 181422Z 1815/1823 02006KT 1400 BR BKN002 TEMPO 1815/1823 4000 DZRA BKN005=

EKYT (14:20 UTC)

Aalborg Airport

METAR

RABR

EKYT 181420Z 10009KT 2500 -DZRA BR OVC004 09/09 Q1005=

TAF

RABR

EKYT 181405Z 1815/1915 10008KT 5000 BR BKN008 TEMPO 1815/1902 1500 -RADZ BKN003 BECMG 1902/1904 15010KT 8000 NSW BKN015 TEMPO 1904/1912 3000 BR BKN006=

EKKA (14:50 UTC)

Karup Airport

METAR

DZFG

EKKA 181450Z 08005KT 0700 R09/P2000N R27/P2000N FG -DZ VV002 09/08 Q1004=

TAF

RAFG

EKKA 181405Z 1815/1915 09006KT 2500 BR BKN004 TEMPO 1815/1901 0500 FG -RADZ VV002 BECMG 1901/1903 15008KT 5000 NSW BKN008 TEMPO 1903/1909 2000 BR BKN002=

EKBI (14:20 UTC)

Billund Airport

METAR

RABR

EKBI 181420Z AUTO VRB01KT 1700 -RA BR OVC002/// 08/08 Q1003=

TAF

DZBR

EKBI 181111Z 1812/1912 10005KT 1000 BCFG BR BKN002 TEMPO 1812/1912 5000 DZ BKN006=

EKOD (14:20 UTC)

Odense Airport

METAR

BR

EKOD 181420Z 12009KT 5000 BR BKN009 BKN011 09/08 Q1003=

TAF

BR

EKOD 181153Z 1812/1816 10007KT 6000 SCT011 TEMPO 1812/1816 4000 BR BKN008=

EKCH (14:20 UTC)

Copenhagen Airport, Kastrup

METAR

EKCH 181420Z 11013KT 7000 FEW009 BKN012 10/08 Q1005 NOSIG=

TAF

RABR

EKCH 181119Z 1812/1912 10013KT 6000 BKN010 TEMPO 1812/1818 BKN008 BECMG 1818/1821 17020KT 3000 -RADZ BR BKN005 BECMG 1821/1823 9999 NSW BKN010 BECMG 1823/1901 BKN015 BECMG 1905/1907 BKN012 TEMPO 1907/1912 4000 RADZ BKN008 BECMG 1909/1911 21022G32KT=

EKRK (14:20 UTC)

Copenhagen Airport, Roskilde

METAR

EKRK 181420Z AUTO 11010KT 5000 OVC005/// 09/08 Q1005=

TAF

RABR

EKRK 181422Z 1815/1824 11012KT 5000 BKN006 TEMPO 1815/1818 4000 BR SCT008 BECMG 1818/1820 18014KT 2500 -RADZ BR BKN004 TEMPO 1820/1824 5000 BKN006=

ENRY (14:50 UTC)

Moss flygplats, Rygge

METAR

ENRY 181450Z 01006KT 8000 BKN008 03/03 Q1010=

TAF

RABR

ENRY 181100Z 1812/1912 04008KT 9999 -RA SCT004 BKN012 TEMPO 1812/1909 2000 RADZ BR OVC004 BECMG 1906/1908 18010KT BECMG 1909/1911 BKN020=

ENGM (14:50 UTC)

Oslo flygplats, Gardermoen

METAR

RA

ENGM 181450Z 01010KT 9999 -RA FEW004 OVC012 01/01 Q1011 TEMPO 4000 RA BKN008=

TAF

RABR

ENGM 181100Z 1812/1912 03008KT 9000 -RA FEW003 BKN008 TEMPO 1812/1818 4000 RA BR SCT008 OVC015 TEMPO 1818/1912 2000 RADZ BR OVC003 BECMG 1909/1911 18010KT=

ENTO (14:50 UTC)

Sandefjord flygplats, Torp

METAR

RA

ENTO 181450Z 01009KT 7000 -RA OVC005 02/02 Q1009 TEMPO OVC003=

TAF

RABR

ENTO 181100Z 1812/1912 02008KT 6000 -RA OVC003 TEMPO 1812/1911 2000 RADZ BR SCT002 OVC005 BECMG 1908/1910 18010KT=

ENCN (14:50 UTC)

Kristiansand flygplats, Kjevik

METAR

RA

ENCN 181450Z 02005KT 360V060 6000 RA FEW012 BKN017 03/02 Q1008=

TAF

RABR

ENCN 181400Z 1815/1822 03008KT 7000 RA SCT008 BKN020 TEMPO 1815/1822 4000 -RADZ BR BKN008=

ENZV (14:50 UTC)

Stavanger-Sola flygplats

METAR

RA

ENZV 181450Z 35007KT 9999 -RA FEW008 BKN015 05/04 Q1010 TEMPO BKN009=

TAF

RA

ENZV 181100Z 1812/1912 36008KT 9999 -RA SCT007 BKN025 PROB30 TEMPO 1812/1818 RA BKN007 TEMPO 1818/1912 35015G25KT=

ENHD (14:50 UTC)

Haugesund flygplats, Karmøy

METAR

DZ

ENHD 181450Z 02010KT 9999 -DZ FEW025 BKN240 04/02 Q1011=

TAF

RA

ENHD 181400Z 1815/1822 36015KT 9999 -RA FEW025 BKN050=

ENBR (14:50 UTC)

Bergen flygplats, Flesland

METAR

ENBR 181450Z 33006KT 300V360 9999 FEW015 SCT045 BKN070 04/01 Q1011 NOSIG RMK WIND 1200FT 36009KT=

TAF

RA

ENBR 181100Z 1812/1912 35008KT 9999 -RA FEW015 BKN040=

ENBL (14:20 UTC)

Førde flygplats, Bringeland

METAR

SN

ENBL 181420Z 07004KT 9999 5000E -SN FEW006 SCT015 BKN030 00/M00 Q1011=

TAF

Ingen TAF hittades.

ENOV (14:20 UTC)

Ørsta-Volda flygplats, Hovden

METAR

RA

ENOV 181420Z 00000KT 9999 -RA FEW019 BKN040 00/M00 Q1013 RMK WIND 2175FT 34004KT=

TAF

Ingen TAF hittades.

ENML (14:20 UTC)

Molde flygplats, Årø

METAR

ENML 181420Z 03006KT 9999 SCT030 BKN060 02/M03 Q1014=

TAF

RA

ENML 181400Z 1815/1822 VRB05KT 9999 -RA SCT025 BKN050 PROB40 1818/1822 1500 SNRA VV009=

ENKB (14:20 UTC)

Kristiansund flygplats, Kvernberget

METAR

SHRA

ENKB 181420Z VRB01KT 9999 VCSH FEW018 SCT027 BKN037 04/M03 Q1013 RMK WIND 745FT 16007KT=

TAF

RA

ENKB 181400Z 1815/1822 VRB05KT 9999 -RA SCT020 BKN040 PROB40 1818/1822 2000 SNRA VV010=

ENRO (14:50 UTC)

Røros flygplats

METAR

SN

ENRO 181450Z 12008KT 2500 -SN VV014 M01/M01 Q1013=

TAF

SN

ENRO 181100Z 1812/1820 12010KT 6000 -SN SCT003 BKN015 TEMPO 1812/1820 2000 SN VV008=

ENVA (14:50 UTC)

Trondheim flygplats, Værnes

METAR

ENVA 181450Z 10009KT 9999 BKN035 04/00 Q1015 NOSIG RMK WIND 670FT 09010KT=

TAF

SN

ENVA 181100Z 1812/1912 10007KT 9999 BKN030 PROB30 TEMPO 1814/1905 4000 -SNRA BECMG 1905/1907 BKN012 TEMPO 1906/1912 1200 SNRA VV007=

ENOL (14:50 UTC)

Ørland flygplats

METAR

SHRA

ENOL 181450Z 13015KT 9999 VCSH FEW020 BKN040 05/01 Q1014 TEMPO 4000 -RASN BKN012=

TAF

RA

ENOL 181100Z 1812/1912 11012KT 9999 FEW020 BKN050 TEMPO 1812/1821 13022KT TEMPO 1815/1823 4000 -RASN BKN012 BECMG 1823/1902 22008KT 4000 -RASN BKN010 TEMPO 1903/1912 2000 SNRA VV008=

ENBN (14:20 UTC)

Brønnøysund flygplats, Brønnøy

METAR

ENBN 181420Z 09011KT 9999 FEW035 BKN120 05/M02 Q1017=

TAF

RA

ENBN 181400Z 1815/1820 10008KT 9999 -RA BKN040 TEMPO 1818/1820 13015G25KT=

ENRA (14:20 UTC)

Mo i Rana flygplats, Røssvoll

METAR

ENRA 181420Z 10008KT 9999 SCT055 02/M04 Q1020=

TAF

RA

ENRA 181400Z 1815/1823 11005KT 9999 -RA BKN040 PROB40 TEMPO 1818/1823 11015G25KT 4000 SNRA VV012=

ENBO (14:20 UTC)

Bodö flygplats

METAR

ENBO 181420Z 08018KT 9999 FEW050 BKN065 02/M03 Q1020 NOSIG=

TAF

ENBO 181100Z 1812/1912 09018KT 9999 FEW030 SCT080 TEMPO 1900/1912 10025G35KT=

ENAN (14:50 UTC)

Andøya flygplats

METAR

ENAN 181450Z 17009KT CAVOK 02/M00 Q1021=

TAF

ENAN 181100Z 1812/1912 17007KT 9999 FEW015 BKN030=

ENDU (14:20 UTC)

Bardufoss flygplats

METAR

ENDU 181420Z VRB02KT 9999 FEW040 BKN080 M10/M11 Q1022 NOSIG RMK WIND 1100FT 15010KT WIND 2200FT 16016KT=

TAF

FZRA

ENDU 181100Z 1812/1912 15005KT 9999 FEW040 BKN080 PROB30 TEMPO 1905/1912 -FZRA=

ENTC (14:50 UTC)

Tromsø flygplats

METAR

ENTC 181450Z 23008KT 9999 BKN043 M00/M04 Q1022 RMK WIND 2600FT 18015KT=

TAF

ENTC 181100Z 1812/1912 VRB05KT 9999 SCT050 TEMPO 1812/1912 20010KT=

ENNA (14:20 UTC)

Lakselv flygplats

METAR

SHRA

ENNA 181420Z 18020KT 9999 VCSH FEW008 BKN090 M06/M08 Q1025 RMK WIND 1800FT 18022KT=

TAF

SN

ENNA 181100Z 1812/1912 18018KT 9999 FEW015 SCT040 TEMPO 1906/1912 4000 -SN BKN014=

ENHF (14:20 UTC)

Hammerfest flygplats

METAR

ENHF 181420Z 24007KT 190V290 CAVOK M02/M06 Q1021 RMK WIND 1254FT 20018KT=

TAF

ENHF 181400Z 1815/1824 21005KT 9999 SCT040 TEMPO 1815/1824 21015KT=

ENKR (14:20 UTC)

Kirkenes Airport, Høybuktmoen

METAR

ENKR 181420Z 17012KT 9999 BKN015 M06/M07 Q1029 RMK WIND 731FT 16019KT=

TAF

ENKR 181400Z 1815/1824 17011KT 9999 FEW005 BKN015 TEMPO 1815/1818 BKN008 PROB30 TEMPO 1815/1818 2000 BCFG BKN002 TEMPO 1816/1824 19015G25KT=

ENST (14:20 UTC)

Sandnessjøen Airport, Stokka

METAR

ENST 181420Z 07006KT 9999 FEW050 BKN180 04/M02 Q1018 RMK WIND 300FT 07010KT=

TAF

Ingen TAF hittades.

ENSB (14:50 UTC)

Svalbard Airport, Longyear

METAR

ENSB 181450Z 14010KT 9999 BKN039 00/M05 Q1021 RMK WIND 1400FT 18008KT=

TAF

SHSN

ENSB AMD 181100Z 1812/1912 14008KT 9999 FEW030 BKN050 TEMPO 1821/1824 18020KT BECMG 1905/1908 24018KT PROB30 1905/1912 4000 SHSNRA VV014=

ENSK (14:30 UTC)

Stokmarknes Airport, Skagen

METAR

ENSK 181430Z 12014KT 9999 FEW030 BKN060 04/M01 Q1021=

TAF

Ingen TAF hittades.

ENNM (14:20 UTC)

Namsos Airport, Høknesøra

METAR

SHRA

ENNM 181420Z 08015KT 9999 -SHRA SCT015 BKN020 03/M00 Q1017=

TAF

Ingen TAF hittades.